Time;durP1;ratioP1;P1;durP2;ratioP2;P2;SDS_P1;SDS_P2;PMS_P1;PMS_P2;Temp;Humidity;BMP_temperature;BMP_pressure;BME280_temperature;BME280_humidity;BME280_pressure;Samples;Min_cycle;Max_cycle;Signal;HPM_P1;HPM_P2
2023/01/03 04:01:15;;;;;;;30.15;13.57;;;3.70;99.90;;;;;;6005361;23;20022;-82
2023/01/03 04:03:42;;;;;;;32.08;13.77;;;3.70;99.90;;;;;;6072820;23;20034;-83
2023/01/03 04:06:30;;;;;;;29.77;13.05;;;3.70;99.90;;;;;;6046921;23;20059;-84
2023/01/03 04:08:57;;;;;;;29.83;13.18;;;3.70;99.90;;;;;;6047650;23;20042;-83
2023/01/03 04:11:22;;;;;;;29.73;13.40;;;3.70;99.90;;;;;;6056872;23;20019;-85
2023/01/03 04:13:48;;;;;;;30.70;12.55;;;3.70;99.90;;;;;;6043770;23;20007;-85
2023/01/03 04:16:14;;;;;;;29.75;13.05;;;3.70;99.90;;;;;;6018320;23;20445;-85
2023/01/03 04:18:39;;;;;;;27.75;12.35;;;3.70;99.90;;;;;;6018598;23;20086;-86
2023/01/03 04:21:05;;;;;;;28.42;12.68;;;3.80;99.90;;;;;;6043800;23;20008;-82
2023/01/03 04:23:31;;;;;;;26.77;12.43;;;3.80;99.90;;;;;;6018477;23;20015;-84
2023/01/03 04:25:56;;;;;;;31.92;12.88;;;3.80;99.90;;;;;;6018407;23;20390;-84
2023/01/03 04:28:22;;;;;;;27.75;13.30;;;3.80;99.90;;;;;;6018700;23;20019;-85
2023/01/03 04:30:48;;;;;;;27.20;11.93;;;3.80;99.90;;;;;;6017965;23;20019;-84
2023/01/03 04:33:14;;;;;;;33.33;14.00;;;3.80;99.90;;;;;;6018001;23;20473;-81
2023/01/03 04:35:39;;;;;;;31.15;13.65;;;3.80;99.90;;;;;;6017970;23;20054;-86
2023/01/03 04:38:05;;;;;;;27.67;11.95;;;3.80;99.90;;;;;;5995072;23;20015;-83
2023/01/03 04:40:35;;;;;;;26.95;11.73;;;3.70;99.90;;;;;;5995114;23;20453;-87
2023/01/03 04:45:47;;;;;;;26.00;11.50;;;3.80;99.90;;;;;;6041840;23;20098;-86
2023/01/03 04:48:13;;;;;;;23.77;11.48;;;3.80;99.90;;;;;;6044127;23;20022;-85
2023/01/03 04:50:39;;;;;;;31.50;12.20;;;3.80;99.90;;;;;;6018519;23;20019;-84
2023/01/03 04:53:04;;;;;;;28.23;12.15;;;3.70;99.90;;;;;;6043785;23;20082;-86
2023/01/03 04:55:30;;;;;;;27.40;11.98;;;3.70;99.90;;;;;;6018287;23;20055;-84
2023/01/03 04:57:55;;;;;;;21.38;10.95;;;3.70;99.90;;;;;;6018402;23;20011;-85
2023/01/03 05:00:21;;;;;;;25.38;12.38;;;3.70;99.90;;;;;;5995110;23;20011;-87
2023/01/03 05:02:47;;;;;;;30.88;13.32;;;3.60;99.90;;;;;;6042922;23;20011;-85
2023/01/03 05:05:12;;;;;;;37.70;14.05;;;3.60;99.90;;;;;;5994845;23;20022;-84
2023/01/03 05:07:38;;;;;;;29.13;14.00;;;3.60;99.90;;;;;;6043684;23;20019;-83
2023/01/03 05:10:04;;;;;;;33.40;15.57;;;3.50;99.90;;;;;;6018569;23;20130;-87
2023/01/03 05:12:31;;;;;;;36.83;17.25;;;3.50;99.90;;;;;;6043912;23;20480;-86
2023/01/03 05:14:56;;;;;;;37.03;15.85;;;3.40;99.90;;;;;;6018329;23;20020;-84
2023/01/03 05:17:22;;;;;;;38.10;17.75;;;3.40;99.90;;;;;;6018001;23;20011;-85
2023/01/03 05:28:01;;;;;;;44.15;18.70;;;3.30;99.90;;;;;;6044913;23;20019;-88
2023/01/03 05:30:27;;;;;;;42.92;19.33;;;3.20;99.90;;;;;;6004104;23;20098;-88
2023/01/03 05:32:53;;;;;;;45.80;20.05;;;3.20;99.90;;;;;;6024072;23;20015;-90
2023/01/03 05:35:19;;;;;;;49.17;21.38;;;3.20;99.90;;;;;;6000553;23;20114;-93
2023/01/03 05:37:45;;;;;;;48.17;22.02;;;3.10;99.90;;;;;;6001743;23;20016;-88
2023/01/03 05:40:11;;;;;;;51.28;22.90;;;3.10;99.90;;;;;;6052841;23;20015;-89
2023/01/03 05:42:37;;;;;;;52.10;23.00;;;3.00;99.90;;;;;;6049370;23;20062;-88
2023/01/03 05:45:03;;;;;;;47.67;21.45;;;3.00;99.90;;;;;;6022190;23;20059;-86
2023/01/03 05:47:28;;;;;;;50.95;22.05;;;3.00;99.90;;;;;;5999434;23;20391;-89
2023/01/03 05:49:54;;;;;;;47.58;21.38;;;2.90;99.90;;;;;;6024098;23;20055;-88
2023/01/03 05:52:20;;;;;;;55.03;22.35;;;2.90;99.90;;;;;;5997886;23;20015;-91
2023/01/03 05:54:45;;;;;;;48.97;23.15;;;2.90;99.90;;;;;;6021231;23;20046;-92
2023/01/03 05:57:11;;;;;;;54.72;23.25;;;2.90;99.90;;;;;;5998803;23;20022;-89
2023/01/03 05:59:37;;;;;;;53.75;24.48;;;2.80;99.90;;;;;;6022753;23;20000;-89
2023/01/03 06:02:02;;;;;;;49.42;23.38;;;2.80;99.90;;;;;;5997349;23;20015;-91
2023/01/03 06:04:28;;;;;;;50.25;22.58;;;2.80;99.90;;;;;;6046029;23;20022;-92
2023/01/03 06:06:54;;;;;;;50.58;21.95;;;2.80;99.90;;;;;;5998171;23;20020;-89
2023/01/03 06:09:19;;;;;;;54.33;23.52;;;2.70;99.90;;;;;;5999006;23;20027;-86
2023/01/03 06:11:45;;;;;;;47.53;21.88;;;2.70;99.90;;;;;;5998930;23;20094;-91
2023/01/03 06:14:11;;;;;;;49.20;21.73;;;2.80;99.90;;;;;;6023749;23;20079;-89
2023/01/03 06:19:20;;;;;;;43.65;20.05;;;2.70;99.90;;;;;;6047484;23;20022;-91
2023/01/03 06:21:46;;;;;;;43.20;21.23;;;2.70;99.90;;;;;;6022752;23;20330;-90
2023/01/03 06:24:11;;;;;;;43.70;20.45;;;2.70;99.90;;;;;;6023056;23;20083;-88
2023/01/03 06:26:37;;;;;;;42.75;19.10;;;2.70;99.90;;;;;;6049051;23;20011;-93
2023/01/03 06:29:04;;;;;;;42.47;20.35;;;2.80;99.90;;;;;;6023637;23;20046;-90
2023/01/03 06:31:30;;;;;;;42.42;20.27;;;2.80;99.90;;;;;;6022645;23;20342;-89
2023/01/03 06:33:56;;;;;;;46.95;19.60;;;2.80;99.90;;;;;;6023677;23;20021;-88
2023/01/03 06:36:24;;;;;;;42.58;20.45;;;2.80;99.90;;;;;;6023226;23;20015;-89
2023/01/03 06:38:51;;;;;;;42.20;19.48;;;2.70;99.90;;;;;;6048860;23;20043;-86
2023/01/03 06:41:16;;;;;;;46.17;20.55;;;2.80;99.90;;;;;;6047328;23;20015;-89
2023/01/03 06:43:42;;;;;;;49.30;20.52;;;2.70;99.90;;;;;;5999237;23;20017;-93
2023/01/03 06:54:28;;;;;;;42.92;21.02;;;2.70;99.90;;;;;;6044022;23;20034;-90
2023/01/03 06:56:55;;;;;;;45.50;20.98;;;2.70;99.90;;;;;;6045778;23;20366;-90
2023/01/03 06:59:48;;;;;;;;;;;;;;;;;;;;;
2023/01/03 07:02:24;;;;;;;48.88;22.40;;;2.60;99.90;;;;;;6046047;23;20037;-92
2023/01/03 07:09:15;;;;;;;;;;;;;;;;;;;;;
2023/01/03 07:11:53;;;;;;;42.10;20.45;;;2.50;99.90;;;;;;6047642;23;20152;-92
2023/01/03 07:14:19;;;;;;;45.58;19.88;;;2.50;99.90;;;;;;6021650;23;20457;-91
2023/01/03 07:16:47;;;;;;;54.13;22.38;;;2.50;99.90;;;;;;5997059;23;20022;-87
2023/01/03 07:19:15;;;;;;;50.08;23.80;;;2.40;99.90;;;;;;5999430;23;20019;-89
2023/01/03 07:21:41;;;;;;;50.22;22.98;;;2.40;99.90;;;;;;6000035;23;20027;-89
2023/01/03 07:24:12;;;;;;;59.20;24.80;;;2.30;99.90;;;;;;6022772;23;20011;-88
2023/01/03 07:26:38;;;;;;;53.20;17.58;;;2.20;99.90;;;;;;6023357;23;20035;-87
2023/01/03 07:29:06;;;;;;;106.53;20.65;;;2.10;99.90;;;;;;5998584;23;20019;-90
2023/01/03 07:31:33;;;;;;;128.10;21.35;;;1.90;99.90;;;;;;5998368;23;20023;-86
2023/01/03 07:34:00;;;;;;;138.68;20.40;;;1.80;99.90;;;;;;6047873;23;20086;-88
2023/01/03 07:36:26;;;;;;;174.57;23.52;;;1.70;99.90;;;;;;6046869;23;20019;-90
2023/01/03 07:38:54;;;;;;;152.50;20.90;;;1.70;99.90;;;;;;5998648;23;20019;-89
2023/01/03 07:41:20;;;;;;;213.57;23.30;;;1.60;99.90;;;;;;5998405;23;20094;-89
2023/01/03 07:43:47;;;;;;;168.25;21.67;;;1.60;99.90;;;;;;6023783;23;20418;-91
2023/01/03 07:46:16;;;;;;;195.43;24.67;;;1.60;99.90;;;;;;5999091;23;20023;-87
2023/01/03 07:48:43;;;;;;;243.93;29.23;;;1.60;99.90;;;;;;5998469;23;20015;-93
2023/01/03 07:51:33;;;;;;;263.58;28.15;;;1.60;99.90;;;;;;6023497;23;20003;-94
2023/01/03 07:54:08;;;;;;;340.88;30.92;;;1.70;99.90;;;;;;6003762;23;20019;-91
2023/01/03 07:56:34;;;;;;;257.13;27.40;;;1.80;99.90;;;;;;6037908;23;20031;-86
2023/01/03 07:59:01;;;;;;;401.92;34.92;;;1.80;99.90;;;;;;6016653;23;20014;-89
2023/01/03 08:01:28;;;;;;;299.70;28.90;;;1.90;99.90;;;;;;6027257;23;20015;-91
2023/01/03 08:03:54;;;;;;;263.67;28.48;;;1.90;99.90;;;;;;6050662;23;20333;-91
2023/01/03 08:06:22;;;;;;;304.33;28.42;;;2.00;99.90;;;;;;6048938;23;20035;-88
2023/01/03 08:13:16;;;;;;;343.50;31.95;;;2.00;99.90;;;;;;6023360;23;20346;-92
2023/01/03 08:14:18;;;;;;;225.50;27.35;;;2.10;99.90;;;;;;6023276;23;20030;-87
2023/01/03 08:16:44;;;;;;;460.60;39.20;;;2.20;99.90;;;;;;6022941;23;20025;-88
2023/01/03 08:19:10;;;;;;;351.83;33.55;;;2.30;99.90;;;;;;6047264;23;20011;-88
2023/01/03 08:21:36;;;;;;;308.30;32.40;;;2.30;99.90;;;;;;6020719;23;20015;-88
2023/01/03 08:24:01;;;;;;;355.92;34.42;;;2.30;99.90;;;;;;5996814;23;20074;-89
2023/01/03 08:26:27;;;;;;;364.17;34.30;;;2.40;99.90;;;;;;6019505;23;20517;-86
2023/01/03 08:28:53;;;;;;;417.33;36.30;;;2.40;99.90;;;;;;6020929;23;20019;-89
2023/01/03 08:31:21;;;;;;;432.48;39.28;;;2.50;99.90;;;;;;6021387;23;20472;-88
2023/01/03 08:34:02;;;;;;;419.05;39.00;;;2.50;99.90;;;;;;6020600;23;20089;-89
2023/01/03 08:36:36;;;;;;;383.27;37.45;;;2.50;99.90;;;;;;6020906;23;20015;-87
2023/01/03 08:39:12;;;;;;;345.23;37.30;;;2.60;99.90;;;;;;6021809;23;20566;-91
2023/01/03 08:41:43;;;;;;;374.95;38.65;;;2.70;99.90;;;;;;6046073;23;20082;-91
2023/01/03 08:44:13;;;;;;;330.20;37.03;;;2.70;99.90;;;;;;6049660;23;20059;-92
2023/01/03 08:46:57;;;;;;;379.48;39.90;;;2.80;99.90;;;;;;5997221;23;20050;-87
2023/01/03 08:49:23;;;;;;;243.00;32.65;;;2.90;99.90;;;;;;6042844;23;20027;-84
2023/01/03 08:51:48;;;;;;;332.83;38.67;;;2.90;99.90;;;;;;6018844;23;20019;-86
2023/01/03 08:54:14;;;;;;;324.80;39.63;;;2.90;99.90;;;;;;5995752;23;20023;-84
2023/01/03 08:56:40;;;;;;;307.08;39.20;;;3.00;99.90;;;;;;6019461;23;20015;-87
2023/01/03 08:59:06;;;;;;;334.35;41.75;;;3.00;99.90;;;;;;6018938;23;20022;-84
2023/01/03 09:01:31;;;;;;;307.10;40.65;;;3.10;99.90;;;;;;6043898;23;20454;-84
2023/01/03 09:03:57;;;;;;;305.52;40.28;;;3.10;99.90;;;;;;5995256;23;20019;-86
2023/01/03 09:06:23;;;;;;;250.50;39.25;;;3.20;99.90;;;;;;6043642;23;20050;-85
2023/01/03 09:08:48;;;;;;;273.15;38.47;;;3.20;99.90;;;;;;6018366;23;20019;-84
2023/01/03 09:11:14;;;;;;;278.52;40.25;;;3.30;99.90;;;;;;6018897;23;20023;-85
2023/01/03 09:13:40;;;;;;;255.27;41.85;;;3.30;99.90;;;;;;6020255;23;20078;-85
2023/01/03 09:16:11;;;;;;;295.65;41.28;;;3.40;99.90;;;;;;6019147;23;20067;-84
2023/01/03 09:18:39;;;;;;;230.40;38.72;;;3.40;99.90;;;;;;6045359;23;20087;-84
2023/01/03 09:21:05;;;;;;;273.63;42.80;;;3.50;99.90;;;;;;6018348;23;20019;-84
2023/01/03 09:23:33;;;;;;;269.52;42.53;;;3.50;99.90;;;;;;6018069;23;20011;-84
2023/01/03 09:25:59;;;;;;;245.30;42.83;;;3.50;99.90;;;;;;6043308;23;20454;-85
2023/01/03 09:28:24;;;;;;;260.52;44.83;;;3.60;99.90;;;;;;5994140;23;20030;-84
2023/01/03 09:30:51;;;;;;;213.52;42.40;;;3.60;99.90;;;;;;5993860;23;20050;-84
2023/01/03 09:33:16;;;;;;;243.68;43.30;;;3.70;99.90;;;;;;6043122;23;20407;-84
2023/01/03 09:35:42;;;;;;;231.88;44.00;;;3.80;99.90;;;;;;5994761;23;20019;-85
2023/01/03 09:38:08;;;;;;;244.32;47.13;;;3.70;99.90;;;;;;6018410;23;20452;-83
2023/01/03 09:40:39;;;;;;;233.43;45.88;;;3.80;99.90;;;;;;6018639;23;20395;-85
2023/01/03 09:43:12;;;;;;;211.70;45.38;;;3.90;99.90;;;;;;6018093;23;20337;-85
2023/01/03 09:45:42;;;;;;;206.90;44.72;;;3.90;99.90;;;;;;6018111;23;20051;-85
2023/01/03 09:48:13;;;;;;;211.60;44.83;;;3.90;99.90;;;;;;6018710;23;20071;-84
2023/01/03 09:50:41;;;;;;;218.52;46.92;;;4.00;99.90;;;;;;6043548;23;20026;-84
2023/01/03 10:05:30;;;;;;;171.63;44.58;;;4.30;99.90;;;;;;5987359;23;20071;-85
2023/01/03 10:08:04;;;;;;;173.68;47.17;;;4.40;99.90;;;;;;6018733;23;20422;-85
2023/01/03 10:10:44;;;;;;;175.10;46.90;;;4.40;99.90;;;;;;6018418;23;20022;-84
2023/01/03 10:13:26;;;;;;;180.73;45.90;;;4.50;99.90;;;;;;6017346;23;20101;-83
2023/01/03 10:16:30;;;;;;;166.48;45.38;;;4.50;99.90;;;;;;5994682;23;20020;-84
2023/01/03 10:19:09;;;;;;;161.52;45.40;;;4.60;99.90;;;;;;5928784;24;20017;-85
2023/01/03 10:22:00;;;;;;;160.00;45.13;;;4.60;99.90;;;;;;6004569;23;20046;-84
2023/01/03 10:24:31;;;;;;;166.85;45.42;;;4.70;99.90;;;;;;6042922;23;20012;-84
2023/01/03 10:27:20;;;;;;;147.95;43.75;;;4.90;99.90;;;;;;6017507;23;20019;-84
2023/01/03 10:29:49;;;;;;;145.88;42.45;;;4.90;99.90;;;;;;6017398;23;20015;-84
2023/01/03 10:32:25;;;;;;;144.88;43.00;;;5.00;99.90;;;;;;6017874;23;20454;-84
2023/01/03 10:35:24;;;;;;;141.57;44.45;;;5.00;99.90;;;;;;5994155;23;20024;-86
2023/01/03 10:37:53;;;;;;;136.15;42.63;;;5.10;99.90;;;;;;6020753;23;20438;-84
2023/01/03 10:40:19;;;;;;;131.07;41.42;;;5.10;99.90;;;;;;6017671;23;20050;-84
2023/01/03 10:42:46;;;;;;;130.85;42.33;;;5.20;99.90;;;;;;6017758;23;20019;-85
2023/01/03 10:45:18;;;;;;;119.90;40.30;;;5.20;99.90;;;;;;6042117;23;20416;-85
2023/01/03 10:47:43;;;;;;;110.60;37.13;;;5.30;99.90;;;;;;6042483;23;20370;-85
2023/01/03 10:50:20;;;;;;;115.65;39.55;;;5.30;99.90;;;;;;6043576;23;20025;-84
2023/01/03 10:52:48;;;;;;;110.95;37.72;;;5.30;99.90;;;;;;5994547;23;20075;-85
2023/01/03 10:55:17;;;;;;;110.20;38.70;;;5.40;99.90;;;;;;6017743;23;20067;-81
2023/01/03 10:57:56;;;;;;;108.28;38.40;;;5.40;99.90;;;;;;6016840;23;20099;-83
2023/01/03 11:00:34;;;;;;;95.22;37.15;;;5.50;99.90;;;;;;6043170;23;20012;-82
2023/01/03 11:03:08;;;;;;;99.30;35.92;;;5.50;99.90;;;;;;6043017;23;20445;-84
2023/01/03 11:05:35;;;;;;;99.15;36.45;;;5.50;99.90;;;;;;6017995;23;20090;-85
2023/01/03 11:08:03;;;;;;;91.35;35.50;;;5.50;99.90;;;;;;6043629;23;20070;-83
2023/01/03 11:10:52;;;;;;;96.07;35.70;;;5.60;99.90;;;;;;6018576;23;20019;-85
2023/01/03 11:13:35;;;;;;;92.47;37.55;;;5.60;99.90;;;;;;6044318;23;20078;-84
2023/01/03 11:16:11;;;;;;;93.82;36.90;;;5.70;99.90;;;;;;6020119;23;20030;-84
2023/01/03 11:18:36;;;;;;;88.65;36.65;;;5.70;99.90;;;;;;6019451;23;20015;-82
2023/01/03 11:21:22;;;;;;;85.95;33.65;;;5.70;99.90;;;;;;6018413;23;20012;-86
2023/01/03 11:24:21;;;;;;;88.95;33.60;;;5.70;99.90;;;;;;6019554;23;20015;-84
2023/01/03 11:27:04;;;;;;;84.57;33.75;;;5.80;99.90;;;;;;6018849;23;20015;-84
2023/01/03 11:29:41;;;;;;;86.32;34.05;;;5.80;99.90;;;;;;6018782;23;20403;-84
2023/01/03 11:32:28;;;;;;;81.53;31.98;;;5.80;99.90;;;;;;6018616;23;20094;-84
2023/01/03 11:35:16;;;;;;;84.20;33.42;;;5.90;99.90;;;;;;6018045;23;20042;-85
2023/01/03 11:38:29;;;;;;;71.88;31.80;;;5.90;99.90;;;;;;6043401;23;20011;-85
2023/01/03 11:41:25;;;;;;;71.55;30.42;;;5.90;99.90;;;;;;5957871;23;20019;-86
2023/01/03 11:44:22;;;;;;;76.70;30.20;;;6.00;99.90;;;;;;5994546;23;20441;-84
2023/01/03 11:46:54;;;;;;;74.22;29.98;;;6.00;99.90;;;;;;6043834;23;20019;-85
2023/01/03 11:49:25;;;;;;;70.93;27.60;;;6.00;99.90;;;;;;6018757;23;20012;-84
2023/01/03 11:51:58;;;;;;;66.93;26.30;;;6.00;99.90;;;;;;6043455;23;20026;-83
2023/01/03 11:54:39;;;;;;;73.72;28.20;;;6.10;99.90;;;;;;6043718;23;20012;-84
2023/01/03 11:57:32;;;;;;;72.22;28.15;;;6.10;99.90;;;;;;6018686;23;20023;-83
2023/01/03 12:00:19;;;;;;;62.75;25.15;;;6.10;99.90;;;;;;5995644;23;20441;-84
2023/01/03 12:02:58;;;;;;;61.00;25.05;;;6.10;99.90;;;;;;6044047;23;20018;-84
2023/01/03 12:05:40;;;;;;;68.50;26.08;;;6.10;99.90;;;;;;6045097;23;20330;-85
2023/01/03 12:08:37;;;;;;;58.95;24.45;;;6.10;99.90;;;;;;6019649;23;20098;-85
2023/01/03 12:11:19;;;;;;;61.35;24.50;;;6.20;99.90;;;;;;5994896;23;20016;-85
2023/01/03 12:14:01;;;;;;;65.57;24.52;;;6.20;99.90;;;;;;6044846;23;20015;-85
2023/01/03 12:16:46;;;;;;;63.72;25.60;;;6.20;99.90;;;;;;6045367;23;20022;-87
2023/01/03 12:19:27;;;;;;;60.40;24.88;;;6.30;99.90;;;;;;6018992;23;20014;-85
2023/01/03 12:22:00;;;;;;;59.33;23.63;;;6.20;99.90;;;;;;6019135;23;20074;-84
2023/01/03 12:24:37;;;;;;;54.53;23.23;;;6.30;99.90;;;;;;6018811;23;20042;-85
2023/01/03 12:27:19;;;;;;;54.30;22.83;;;6.30;99.90;;;;;;6043718;23;20015;-85
2023/01/03 12:29:45;;;;;;;56.75;23.95;;;6.30;99.90;;;;;;6018257;23;20016;-85
2023/01/03 12:32:46;;;;;;;60.05;23.50;;;6.30;99.90;;;;;;6018623;23;20136;-84
2023/01/03 12:35:23;;;;;;;59.83;22.02;;;6.30;99.90;;;;;;5961158;23;20019;-85
2023/01/03 12:37:50;;;;;;;62.20;23.42;;;6.30;99.90;;;;;;6022671;23;20015;-86
2023/01/03 12:40:22;;;;;;;58.00;24.83;;;6.40;99.90;;;;;;6029686;23;20007;-83
2023/01/03 12:42:53;;;;;;;59.03;23.52;;;6.40;99.90;;;;;;6038203;23;20007;-82
2023/01/03 12:45:28;;;;;;;60.85;22.63;;;6.40;99.90;;;;;;6023964;23;20115;-87
2023/01/03 12:48:16;;;;;;;63.10;24.05;;;6.40;99.90;;;;;;5997429;23;20347;-84
2023/01/03 12:50:46;;;;;;;65.03;24.33;;;6.40;99.90;;;;;;5985926;23;20402;-85
2023/01/03 12:53:20;;;;;;;60.58;23.52;;;6.40;99.90;;;;;;6019416;23;20015;-84
2023/01/03 12:56:23;;;;;;;60.35;24.05;;;6.50;99.90;;;;;;6018815;23;20020;-85
2023/01/03 12:59:07;;;;;;;56.13;22.67;;;6.60;99.90;;;;;;5995584;23;20018;-85
2023/01/03 13:01:41;;;;;;;61.67;24.10;;;6.60;99.90;;;;;;6018813;23;20109;-86
2023/01/03 13:04:18;;;;;;;59.47;23.00;;;6.60;99.90;;;;;;6019446;23;20015;-85
2023/01/03 13:07:05;;;;;;;57.47;23.13;;;6.60;99.90;;;;;;6018609;23;20027;-84
2023/01/03 13:09:35;;;;;;;55.55;22.60;;;6.70;99.90;;;;;;6017908;23;20022;-84
2023/01/03 13:12:24;;;;;;;55.75;22.67;;;6.70;99.90;;;;;;6043311;23;20016;-83
2023/01/03 13:15:01;;;;;;;61.00;22.23;;;6.70;99.90;;;;;;6017857;23;20015;-84
2023/01/03 13:17:28;;;;;;;53.55;20.50;;;6.80;99.90;;;;;;6018248;23;20015;-83
2023/01/03 13:19:55;;;;;;;48.40;19.77;;;6.80;99.90;;;;;;6017653;23;20022;-84
2023/01/03 13:22:44;;;;;;;49.83;19.10;;;6.80;99.90;;;;;;6017582;23;20043;-85
2023/01/03 13:25:33;;;;;;;49.20;19.73;;;6.80;99.90;;;;;;6043094;23;20058;-83
2023/01/03 13:28:17;;;;;;;50.03;19.70;;;6.80;99.90;;;;;;6018626;23;20337;-84
2023/01/03 13:30:43;;;;;;;47.42;18.35;;;6.80;99.90;;;;;;5995362;23;20015;-84
2023/01/03 13:33:12;;;;;;;45.30;19.67;;;6.90;99.90;;;;;;6017515;23;20055;-84
2023/01/03 13:35:43;;;;;;;46.22;19.13;;;6.90;99.90;;;;;;6042382;23;20384;-83
2023/01/03 13:38:30;;;;;;;43.83;20.08;;;6.90;99.90;;;;;;6016960;23;20015;-84
2023/01/03 13:41:03;;;;;;;44.13;19.10;;;7.00;99.90;;;;;;6018755;23;20020;-83
2023/01/03 13:43:32;;;;;;;44.13;19.17;;;7.00;99.90;;;;;;6017711;23;20015;-83
2023/01/03 13:46:01;;;;;;;45.88;20.48;;;7.00;99.90;;;;;;6017275;23;20051;-82
2023/01/03 13:48:50;;;;;;;48.22;20.60;;;7.00;99.90;;;;;;6016404;23;20020;-85
2023/01/03 13:51:15;;;;;;;47.60;21.00;;;7.00;99.90;;;;;;5993611;23;20090;-85
2023/01/03 13:54:00;;;;;;;47.08;20.25;;;7.00;99.90;;;;;;6017870;23;20019;-84
2023/01/03 13:56:52;;;;;;;47.53;19.85;;;7.10;99.90;;;;;;6042414;23;20390;-84
2023/01/03 13:59:41;;;;;;;47.78;20.45;;;7.00;99.90;;;;;;6017829;23;20501;-85
2023/01/03 14:02:26;;;;;;;44.67;20.33;;;7.10;99.90;;;;;;6017136;23;20462;-84
2023/01/03 14:05:01;;;;;;;44.42;19.85;;;7.10;99.90;;;;;;6016766;23;20050;-84
2023/01/03 14:07:49;;;;;;;43.97;19.73;;;7.10;99.90;;;;;;6017116;23;20016;-85
2023/01/03 14:10:28;;;;;;;46.15;19.50;;;7.20;99.90;;;;;;6042933;23;20322;-83
2023/01/03 14:13:22;;;;;;;43.60;20.52;;;7.20;99.90;;;;;;6017211;23;20457;-84
2023/01/03 14:15:51;;;;;;;47.35;19.58;;;7.20;99.90;;;;;;6042699;23;20016;-85
2023/01/03 14:18:27;;;;;;;51.95;20.33;;;7.30;99.90;;;;;;6042630;23;20046;-83
2023/01/03 14:20:56;;;;;;;45.20;20.48;;;7.30;99.90;;;;;;6042461;23;20014;-86
2023/01/03 14:23:24;;;;;;;45.20;19.17;;;7.30;99.90;;;;;;6042322;23;20035;-84
2023/01/03 14:25:51;;;;;;;39.50;19.48;;;7.30;99.90;;;;;;5993658;23;20042;-85
2023/01/03 14:28:22;;;;;;;42.40;19.33;;;7.30;99.90;;;;;;6042695;23;20019;-85
2023/01/03 14:30:54;;;;;;;44.20;19.70;;;7.30;99.90;;;;;;6018066;23;20300;-83
2023/01/03 14:33:23;;;;;;;45.05;19.13;;;7.30;99.90;;;;;;6017380;23;20015;-85
2023/01/03 14:35:59;;;;;;;40.60;18.25;;;7.30;99.90;;;;;;6016702;23;20016;-85
2023/01/03 14:38:30;;;;;;;43.22;18.75;;;7.30;99.90;;;;;;6041744;23;20015;-84
2023/01/03 14:40:56;;;;;;;45.47;18.70;;;7.40;99.90;;;;;;6041944;23;20011;-84
2023/01/03 14:43:27;;;;;;;40.08;17.85;;;7.40;99.90;;;;;;6017778;23;20015;-80
2023/01/03 14:46:12;;;;;;;42.90;19.10;;;7.40;99.90;;;;;;6043576;23;20023;-83
2023/01/03 14:48:38;;;;;;;42.90;18.95;;;7.40;99.90;;;;;;6017938;23;20076;-83
2023/01/03 14:51:04;;;;;;;40.30;19.13;;;7.40;99.90;;;;;;6043512;23;20351;-81
2023/01/03 14:53:32;;;;;;;37.40;18.33;;;7.50;99.90;;;;;;6017818;23;20015;-81
2023/01/03 14:55:58;;;;;;;38.88;18.63;;;7.50;99.90;;;;;;5993934;23;20350;-82
2023/01/03 14:58:40;;;;;;;34.78;17.75;;;7.50;99.90;;;;;;5995379;23;20295;-81
2023/01/03 15:01:09;;;;;;;42.85;18.88;;;7.50;99.90;;;;;;6043044;23;20383;-82
2023/01/03 15:03:46;;;;;;;37.03;18.90;;;7.50;99.90;;;;;;6018855;23;20022;-82
2023/01/03 15:06:24;;;;;;;41.88;18.95;;;7.50;99.90;;;;;;5994182;23;20064;-80
2023/01/03 15:08:56;;;;;;;40.22;18.23;;;7.50;99.90;;;;;;5994029;23;20070;-83
2023/01/03 15:11:55;;;;;;;38.20;18.65;;;7.50;99.90;;;;;;6017791;23;20074;-81
2023/01/03 15:14:25;;;;;;;37.90;18.30;;;7.50;99.90;;;;;;6042573;23;20086;-81
2023/01/03 15:16:59;;;;;;;36.33;17.23;;;7.50;99.90;;;;;;6042451;23;20394;-81
2023/01/03 15:19:28;;;;;;;37.20;18.23;;;7.50;99.90;;;;;;6017298;23;20090;-79
2023/01/03 15:22:06;;;;;;;37.67;17.67;;;7.50;99.90;;;;;;6016471;23;20454;-81
2023/01/03 15:24:38;;;;;;;35.03;17.42;;;7.50;99.90;;;;;;6043204;23;20127;-81
2023/01/03 15:27:32;;;;;;;38.10;18.75;;;7.50;99.90;;;;;;5994302;23;20019;-80
2023/01/03 15:30:09;;;;;;;33.45;17.95;;;7.50;99.90;;;;;;5994423;23;20430;-81
2023/01/03 15:33:21;;;;;;;35.13;17.70;;;7.50;99.90;;;;;;6042869;23;20348;-82
2023/01/03 15:35:49;;;;;;;35.53;16.38;;;7.40;99.90;;;;;;5927930;24;20751;-80
2023/01/03 15:38:27;;;;;;;31.77;15.50;;;7.40;99.90;;;;;;5905561;24;20017;-82
2023/01/03 15:40:53;;;;;;;32.65;15.65;;;7.40;99.90;;;;;;5999110;23;20012;-82
2023/01/03 15:43:23;;;;;;;31.80;15.85;;;7.40;99.90;;;;;;6017558;23;20501;-82
2023/01/03 15:45:59;;;;;;;27.05;14.75;;;7.40;99.90;;;;;;5994339;23;20403;-81
2023/01/03 15:48:25;;;;;;;34.97;15.07;;;7.40;99.90;;;;;;6018092;23;20473;-81
2023/01/03 15:50:54;;;;;;;28.08;14.15;;;7.30;99.90;;;;;;6017839;23;20063;-82
2023/01/03 15:53:33;;;;;;;26.80;14.43;;;7.30;99.90;;;;;;6017486;23;20517;-81
2023/01/03 15:56:24;;;;;;;27.42;13.90;;;7.40;99.90;;;;;;6042210;23;20338;-81
2023/01/03 15:58:53;;;;;;;24.35;12.57;;;7.40;99.90;;;;;;5993821;23;20019;-82
2023/01/03 16:01:19;;;;;;;28.05;12.75;;;7.40;99.90;;;;;;6017827;23;20011;-82
2023/01/03 16:03:47;;;;;;;25.60;12.88;;;7.40;99.90;;;;;;6016593;23;20046;-81
2023/01/03 16:06:12;;;;;;;26.83;13.20;;;7.30;99.90;;;;;;5994041;23;20026;-81
2023/01/03 16:08:39;;;;;;;21.77;12.15;;;7.30;99.90;;;;;;5994040;23;20449;-81
2023/01/03 16:11:12;;;;;;;23.73;11.70;;;7.30;99.90;;;;;;6042208;23;20023;-81
2023/01/03 16:13:53;;;;;;;20.02;11.30;;;7.30;99.90;;;;;;6017102;23;20030;-81
2023/01/03 16:16:25;;;;;;;24.27;11.85;;;7.30;99.90;;;;;;6018310;23;20423;-81
2023/01/03 16:18:53;;;;;;;21.60;10.85;;;7.30;99.90;;;;;;6018372;23;20096;-82
2023/01/03 16:21:19;;;;;;;19.08;10.35;;;7.30;99.90;;;;;;5993878;23;20513;-82
2023/01/03 16:23:45;;;;;;;21.55;10.93;;;7.30;99.90;;;;;;5993586;23;20011;-81
2023/01/03 16:26:11;;;;;;;21.73;10.27;;;7.20;99.90;;;;;;6016937;23;20105;-81
2023/01/03 16:28:37;;;;;;;22.38;10.88;;;7.20;99.90;;;;;;6041483;23;20038;-81
2023/01/03 16:31:20;;;;;;;27.20;11.55;;;7.30;99.90;;;;;;6041912;23;20015;-80
2023/01/03 16:33:48;;;;;;;24.55;10.82;;;7.20;99.90;;;;;;6016374;23;20090;-81
2023/01/03 16:36:40;;;;;;;20.17;10.70;;;7.20;99.90;;;;;;6042790;23;20054;-82
2023/01/03 16:39:16;;;;;;;19.85;10.55;;;7.20;99.90;;;;;;6017462;23;20505;-81
2023/01/03 16:42:11;;;;;;;20.45;10.80;;;7.20;99.90;;;;;;6017686;23;20329;-82
2023/01/03 16:44:29;;;;;;;19.38;10.57;;;7.20;99.90;;;;;;6043008;23;20518;-82
2023/01/03 16:46:54;;;;;;;18.60;10.77;;;7.20;99.90;;;;;;6018028;23;20031;-79
2023/01/03 16:49:20;;;;;;;23.45;11.25;;;7.20;99.90;;;;;;5994712;23;20019;-81
2023/01/03 16:51:49;;;;;;;22.50;11.82;;;7.20;99.90;;;;;;6041741;23;20098;-81
2023/01/03 16:54:17;;;;;;;23.10;12.02;;;7.20;99.90;;;;;;6016544;23;20019;-81
2023/01/03 16:56:43;;;;;;;21.10;11.27;;;7.20;99.90;;;;;;6016944;23;20094;-82
2023/01/03 16:59:16;;;;;;;24.50;10.90;;;7.20;99.90;;;;;;6041898;23;20019;-81
2023/01/03 17:01:42;;;;;;;21.05;10.48;;;7.20;99.90;;;;;;6016277;23;20012;-82
2023/01/03 17:04:08;;;;;;;17.70;10.43;;;7.10;99.90;;;;;;6018088;23;20074;-81
2023/01/03 17:06:34;;;;;;;20.63;9.90;;;7.10;99.90;;;;;;6017244;23;20429;-81
2023/01/03 17:09:03;;;;;;;21.13;10.40;;;7.10;99.90;;;;;;6016402;23;20044;-81
2023/01/03 17:11:30;;;;;;;19.98;11.68;;;7.10;99.90;;;;;;6016752;23;20015;-81
2023/01/03 17:13:59;;;;;;;22.52;12.15;;;7.10;99.90;;;;;;6018400;23;20023;-81
2023/01/03 17:16:25;;;;;;;18.52;9.30;;;7.10;99.90;;;;;;6017949;23;20019;-81
2023/01/03 17:18:52;;;;;;;19.55;10.07;;;7.10;99.90;;;;;;6018051;23;20018;-81
2023/01/03 17:21:28;;;;;;;23.65;10.15;;;7.20;99.90;;;;;;6042343;23;20434;-81
2023/01/03 17:24:03;;;;;;;17.60;9.50;;;7.20;99.90;;;;;;6016959;23;20022;-80
2023/01/03 17:26:31;;;;;;;17.85;9.10;;;7.10;99.90;;;;;;6016783;23;20445;-79
2023/01/03 17:29:00;;;;;;;18.27;8.60;;;7.10;99.90;;;;;;6016245;23;20354;-82
2023/01/03 17:31:26;;;;;;;16.67;8.63;;;7.20;99.90;;;;;;6016163;23;20480;-81
2023/01/03 17:33:52;;;;;;;18.80;9.00;;;7.20;99.90;;;;;;6040652;23;20023;-81
2023/01/03 17:36:28;;;;;;;16.40;8.07;;;7.20;99.90;;;;;;6016216;23;20091;-81
2023/01/03 17:38:58;;;;;;;17.13;8.13;;;7.20;99.90;;;;;;6041206;23;20022;-80
2023/01/03 17:41:25;;;;;;;19.80;8.30;;;7.20;99.90;;;;;;6041349;23;20015;-80
2023/01/03 17:43:51;;;;;;;20.90;8.75;;;7.20;99.90;;;;;;6041388;23;20015;-82
2023/01/03 17:51:53;;;;;;;17.17;8.13;;;7.20;99.90;;;;;;6039657;23;20019;-81